CheckWX is a tool to help pilots better visualize weather data.  It is not intended as a substitute for an official pre-flight weather briefing.

13:34:34 UTC

KHCD METAR
Hutchinson Municipal-Butler Field Airport
Hutchinson, Minnesota, USA
Current

20 mins ago

KHCD 091315Z AUTO 31007KT 10SM CLR 22/20 A2981 RMK AO2 T02220202
Observed
Jul-9 @ 13:15 UTC
Wind
  • 310° at 7 KTS
Visibility
10 SM
Flight Rules
VFR
Cloud Levels
  • Clear skies
Temperature
22°C / 72°F
Dewpoint
20°C / 68°F
Humidity
88%
Altimeter
29.81" Hg
Pressure
1009.52 hPa
Previous

40 mins ago

KHCD 091255Z AUTO 30005KT 10SM CLR 22/20 A2981 RMK AO2 T02200196
Observed
Jul-9 @ 12:55 UTC
Wind
  • 300° at 5 KTS
Visibility
10 SM
Flight Rules
VFR
Cloud Levels
  • Clear skies
Temperature
22°C / 72°F
Dewpoint
20°C / 68°F
Humidity
88%
Altimeter
29.81" Hg
Pressure
1009.52 hPa
Previous

59 mins ago

KHCD 091236Z AUTO 33007KT 10SM CLR 22/20 A2982 RMK AO2 T02200199
Observed
Jul-9 @ 12:36 UTC
Wind
  • 330° at 7 KTS
Visibility
10 SM
Flight Rules
VFR
Cloud Levels
  • Clear skies
Temperature
22°C / 72°F
Dewpoint
20°C / 68°F
Humidity
88%
Altimeter
29.82" Hg
Pressure
1009.82 hPa